Time;durP1;ratioP1;P1;durP2;ratioP2;P2;SDS_P1;SDS_P2;PMS_P1;PMS_P2;Temp;Humidity;BMP_temperature;BMP_pressure;BME280_temperature;BME280_humidity;BME280_pressure;Samples;Min_cycle;Max_cycle;Signal;HPM_P1;HPM_P2
2022/09/05 00:03:10;;;;;;;2.50;1.70;;;23.80;51.20;;;;;;4460436;32;20271;-74
2022/09/05 00:05:56;;;;;;;2.83;1.48;;;23.80;51.20;;;;;;4397089;32;20071;-74
2022/09/05 00:08:50;;;;;;;1.90;1.33;;;23.80;51.20;;;;;;4400852;32;20098;-76
2022/09/05 00:11:35;;;;;;;2.50;1.50;;;23.80;51.20;;;;;;4462443;32;20139;-74
2022/09/05 00:14:28;;;;;;;2.72;1.33;;;23.80;51.30;;;;;;4451982;32;20129;-74
2022/09/05 00:17:39;;;;;;;2.47;1.30;;;23.80;51.30;;;;;;4465960;32;20140;-74
2022/09/05 00:20:17;;;;;;;1.95;1.48;;;23.80;51.30;;;;;;4462367;32;20089;-74
2022/09/05 00:22:53;;;;;;;2.22;1.50;;;23.80;51.30;;;;;;4465483;32;20081;-75
2022/09/05 00:25:38;;;;;;;2.17;1.52;;;23.80;51.30;;;;;;4465543;32;20194;-74
2022/09/05 00:28:12;;;;;;;2.03;1.52;;;23.80;51.30;;;;;;4465241;32;20085;-74
2022/09/05 00:30:58;;;;;;;1.92;1.33;;;23.80;51.30;;;;;;4465405;32;20200;-74
2022/09/05 00:33:41;;;;;;;2.03;1.42;;;23.70;51.20;;;;;;4465586;32;20104;-74
2022/09/05 00:36:21;;;;;;;1.83;1.27;;;23.70;51.30;;;;;;4465752;32;20085;-73
2022/09/05 00:39:01;;;;;;;1.83;1.52;;;23.80;51.30;;;;;;4465245;32;20215;-74
2022/09/05 00:41:30;;;;;;;2.03;1.50;;;23.70;51.20;;;;;;4465696;32;20203;-74
2022/09/05 00:43:57;;;;;;;2.60;1.67;;;23.70;51.20;;;;;;4465108;32;20073;-74
2022/09/05 00:46:28;;;;;;;2.88;1.48;;;23.70;51.20;;;;;;4465284;32;20086;-74
2022/09/05 00:49:20;;;;;;;1.92;1.33;;;23.70;51.30;;;;;;4451454;32;20113;-74
2022/09/05 00:52:10;;;;;;;3.03;1.40;;;23.70;51.30;;;;;;4465790;32;20519;-74
2022/09/05 00:55:04;;;;;;;1.55;1.23;;;23.70;51.30;;;;;;4465671;32;20080;-73
2022/09/05 00:57:38;;;;;;;1.40;1.15;;;23.70;51.30;;;;;;4466021;32;20086;-74
2022/09/05 01:00:10;;;;;;;;;;;23.70;51.30;;;;;;4466311;32;20084;-74
2022/09/05 01:03:01;;;;;;;2.55;1.45;;;23.70;51.30;;;;;;4465218;32;19978;-74
2022/09/05 01:06:09;;;;;;;2.58;1.63;;;23.70;51.30;;;;;;4465423;32;20278;-73
2022/09/05 01:09:04;;;;;;;2.17;1.20;;;23.70;51.30;;;;;;4465273;32;20093;-74
2022/09/05 01:11:49;;;;;;;1.50;1.40;;;23.70;51.40;;;;;;4465410;32;20066;-73
2022/09/05 01:14:39;;;;;;;2.92;1.50;;;23.70;51.40;;;;;;4465204;32;20087;-74
2022/09/05 01:17:47;;;;;;;1.90;1.20;;;23.70;51.40;;;;;;4451335;32;20083;-74
2022/09/05 01:20:35;;;;;;;1.10;1.00;;;23.70;51.40;;;;;;4432149;32;20073;-74
2022/09/05 01:23:37;;;;;;;1.75;1.38;;;23.70;51.40;;;;;;4462565;32;20141;-74
2022/09/05 01:26:40;;;;;;;2.42;1.48;;;23.70;51.40;;;;;;4462808;32;20066;-74
2022/09/05 01:29:15;;;;;;;1.50;1.10;;;23.70;51.40;;;;;;4462594;32;20086;-74
2022/09/05 01:31:49;;;;;;;1.73;1.27;;;23.70;51.40;;;;;;4462726;32;20633;-74
2022/09/05 01:34:19;;;;;;;2.05;1.25;;;23.70;51.40;;;;;;4462724;32;20086;-73
2022/09/05 01:36:51;;;;;;;2.10;1.42;;;23.70;51.40;;;;;;4462519;32;20078;-74
2022/09/05 01:39:50;;;;;;;1.50;1.40;;;23.70;51.40;;;;;;4462658;32;20070;-74
2022/09/05 01:42:33;;;;;;;1.52;1.40;;;23.70;51.30;;;;;;4462146;32;20116;-74
2022/09/05 01:45:25;;;;;;;2.55;1.42;;;23.70;51.50;;;;;;4462426;32;20192;-74
2022/09/05 01:48:03;;;;;;;2.10;1.50;;;23.70;51.40;;;;;;4462651;32;20466;-74
2022/09/05 01:50:47;;;;;;;1.75;1.38;;;23.70;51.40;;;;;;4462326;32;20546;-74
2022/09/05 01:53:30;;;;;;;1.73;1.50;;;23.60;51.40;;;;;;4462093;32;20438;-74
2022/09/05 01:56:48;;;;;;;2.10;1.45;;;23.70;51.50;;;;;;4462314;32;20179;-74
2022/09/05 01:59:48;;;;;;;2.85;1.73;;;23.60;51.40;;;;;;4435311;32;20085;-74
2022/09/05 02:02:39;;;;;;;1.45;1.30;;;23.60;51.50;;;;;;4439855;32;20098;-74
2022/09/05 02:05:35;;;;;;;1.50;1.20;;;23.60;51.40;;;;;;4461849;32;20235;-74
2022/09/05 02:08:14;;;;;;;2.00;1.42;;;23.60;51.40;;;;;;4462344;32;20399;-74
2022/09/05 02:10:59;;;;;;;2.70;1.50;;;23.60;51.40;;;;;;4462266;32;20132;-75
2022/09/05 02:13:30;;;;;;;2.15;1.23;;;23.60;52.40;;;;;;4461783;32;20081;-74
2022/09/05 02:16:11;;;;;;;1.65;1.35;;;23.60;51.40;;;;;;4461955;32;20088;-74
2022/09/05 02:18:46;;;;;;;1.60;1.30;;;23.60;51.50;;;;;;4461813;32;20492;-74
2022/09/05 02:21:39;;;;;;;1.60;1.33;;;23.60;51.50;;;;;;4461966;32;20086;-73
2022/09/05 02:24:12;;;;;;;2.65;1.50;;;23.60;51.50;;;;;;4461979;32;20069;-73
2022/09/05 02:27:15;;;;;;;1.48;0.95;;;23.60;51.50;;;;;;4462121;32;20074;-74
2022/09/05 02:30:04;;;;;;;2.05;1.30;;;23.60;51.50;;;;;;4461400;32;20192;-74
2022/09/05 02:32:54;;;;;;;1.50;1.15;;;23.60;51.50;;;;;;4461702;32;20104;-74
2022/09/05 02:35:32;;;;;;;2.17;1.42;;;23.60;51.50;;;;;;4447688;32;20183;-74
2022/09/05 02:38:07;;;;;;;2.72;1.30;;;23.60;51.50;;;;;;4461799;32;20077;-74
2022/09/05 02:40:39;;;;;;;2.20;1.13;;;23.60;51.50;;;;;;4461401;32;20062;-74
2022/09/05 02:43:41;;;;;;;1.83;1.52;;;23.60;51.50;;;;;;4461256;32;20215;-74
2022/09/05 02:46:15;;;;;;;1.77;1.20;;;23.60;51.50;;;;;;4461089;32;20078;-73
2022/09/05 02:49:01;;;;;;;2.15;1.20;;;23.60;51.50;;;;;;4461486;32;20078;-73
2022/09/05 02:51:39;;;;;;;3.83;1.42;;;23.60;51.50;;;;;;4461493;32;20082;-74
2022/09/05 02:54:15;;;;;;;1.85;1.17;;;23.60;51.50;;;;;;4447515;32;20082;-74
2022/09/05 02:56:47;;;;;;;1.58;1.23;;;23.60;51.50;;;;;;4461450;32;20089;-74
2022/09/05 02:59:34;;;;;;;2.15;1.17;;;23.60;51.50;;;;;;4461248;32;20081;-74
2022/09/05 03:02:16;;;;;;;1.52;1.42;;;23.60;51.50;;;;;;4461273;32;20097;-74
2022/09/05 03:05:23;;;;;;;1.58;1.13;;;23.60;51.50;;;;;;4461365;32;20073;-74
2022/09/05 03:08:08;;;;;;;2.80;1.60;;;23.60;51.50;;;;;;4447519;32;20455;-74
2022/09/05 03:10:54;;;;;;;1.25;1.00;;;23.60;51.50;;;;;;4461162;32;20101;-74
2022/09/05 03:13:38;;;;;;;1.38;1.23;;;23.60;51.50;;;;;;4447152;32;20118;-74
2022/09/05 03:16:42;;;;;;;1.70;1.15;;;23.50;51.40;;;;;;4461353;32;20081;-74
2022/09/05 03:19:32;;;;;;;2.35;1.65;;;23.60;51.50;;;;;;4461361;32;20452;-74
2022/09/05 03:22:10;;;;;;;1.65;1.20;;;23.50;51.50;;;;;;4447098;32;20081;-74
2022/09/05 03:25:10;;;;;;;1.67;1.38;;;23.50;51.40;;;;;;4461297;32;20278;-74
2022/09/05 03:28:02;;;;;;;1.05;0.93;;;23.50;51.40;;;;;;4460734;32;20061;-74
2022/09/05 03:30:47;;;;;;;2.40;1.25;;;23.50;52.40;;;;;;4460915;32;20100;-74
2022/09/05 03:33:32;;;;;;;1.55;1.20;;;23.50;51.50;;;;;;4460962;32;20077;-74
2022/09/05 03:36:35;;;;;;;2.10;1.30;;;23.50;51.50;;;;;;4460828;32;20113;-74
2022/09/05 03:39:20;;;;;;;1.70;1.10;;;23.50;51.50;;;;;;4460949;32;20128;-73
2022/09/05 03:42:15;;;;;;;1.30;1.08;;;23.50;51.50;;;;;;4446598;32;20187;-74
2022/09/05 03:45:18;;;;;;;1.65;1.40;;;23.50;51.50;;;;;;4446881;32;20078;-74
2022/09/05 03:48:11;;;;;;;1.75;1.20;;;23.50;51.50;;;;;;4461327;32;20085;-74
2022/09/05 03:50:53;;;;;;;2.13;1.30;;;23.50;51.50;;;;;;4460700;32;20160;-74
2022/09/05 03:53:31;;;;;;;1.83;1.17;;;23.50;51.50;;;;;;4460961;32;20093;-74
2022/09/05 03:55:59;;;;;;;1.67;1.20;;;23.40;51.50;;;;;;4460746;32;20113;-74
2022/09/05 03:58:50;;;;;;;1.73;1.10;;;23.50;51.60;;;;;;4460391;32;20113;-74
2022/09/05 04:01:34;;;;;;;1.55;1.17;;;23.50;51.60;;;;;;4449804;32;20138;-74
2022/09/05 04:04:06;;;;;;;1.35;1.15;;;23.50;51.60;;;;;;4460907;32;20235;-74
2022/09/05 04:06:50;;;;;;;2.20;1.20;;;23.40;51.60;;;;;;4460928;32;20125;-74
2022/09/05 04:09:18;;;;;;;;;;;23.40;51.50;;;;;;4461485;32;20097;-74
2022/09/05 04:11:48;;;;;;;1.98;1.38;;;23.40;51.60;;;;;;4460196;32;19985;-74
2022/09/05 04:14:49;;;;;;;1.92;1.17;;;23.40;51.60;;;;;;4460416;32;20085;-74
2022/09/05 04:17:26;;;;;;;1.42;1.30;;;23.40;51.60;;;;;;4451835;32;20081;-74
2022/09/05 04:19:59;;;;;;;1.20;1.10;;;23.40;51.60;;;;;;4460795;32;20120;-74
2022/09/05 04:23:06;;;;;;;1.65;1.20;;;23.40;51.60;;;;;;4460731;32;20081;-73
2022/09/05 04:26:03;;;;;;;2.28;1.23;;;23.40;51.60;;;;;;4459936;32;20070;-74
2022/09/05 04:29:04;;;;;;;1.40;1.30;;;23.40;51.60;;;;;;4460368;32;20100;-74
2022/09/05 04:31:56;;;;;;;1.50;1.10;;;23.40;51.60;;;;;;4460548;32;20105;-74
2022/09/05 04:34:41;;;;;;;1.55;1.20;;;23.40;51.60;;;;;;4460628;32;20479;-74
2022/09/05 04:37:09;;;;;;;1.50;1.20;;;23.40;51.60;;;;;;4460295;32;20078;-73
2022/09/05 04:39:35;;;;;;;1.45;1.10;;;23.40;51.60;;;;;;4460292;32;20081;-73
2022/09/05 04:42:04;;;;;;;1.60;1.20;;;23.40;51.60;;;;;;4460218;32;20082;-74
2022/09/05 04:44:37;;;;;;;1.45;1.23;;;23.40;51.60;;;;;;4460249;32;20098;-74
2022/09/05 04:47:34;;;;;;;1.90;1.40;;;23.40;51.60;;;;;;4460151;32;20074;-74
2022/09/05 04:50:26;;;;;;;1.60;1.33;;;23.40;51.60;;;;;;4446256;32;20109;-74
2022/09/05 04:53:13;;;;;;;1.45;1.30;;;23.40;51.70;;;;;;4457264;32;20387;-74
2022/09/05 04:55:50;;;;;;;1.38;1.25;;;23.40;51.70;;;;;;4463271;32;20066;-74
2022/09/05 04:58:30;;;;;;;1.50;1.30;;;23.30;51.60;;;;;;4463144;32;20077;-74
2022/09/05 05:01:07;;;;;;;1.95;1.40;;;23.40;51.60;;;;;;4463350;32;20082;-74
2022/09/05 05:03:35;;;;;;;1.23;1.13;;;23.40;51.70;;;;;;4463044;32;20088;-74
2022/09/05 05:06:20;;;;;;;1.30;1.20;;;23.40;51.70;;;;;;4462912;32;20097;-74
2022/09/05 05:09:06;;;;;;;1.75;1.30;;;23.40;51.70;;;;;;4462741;32;20534;-74
2022/09/05 05:12:01;;;;;;;2.47;1.20;;;23.40;51.70;;;;;;4449061;32;20066;-74
2022/09/05 05:14:47;;;;;;;1.90;1.27;;;23.30;51.60;;;;;;4463231;32;20085;-74
2022/09/05 05:17:30;;;;;;;2.08;1.20;;;23.30;51.60;;;;;;4462893;32;20070;-74
2022/09/05 05:20:34;;;;;;;1.70;1.25;;;23.40;51.70;;;;;;4462894;32;20415;-73
2022/09/05 05:23:18;;;;;;;1.40;1.10;;;23.30;51.60;;;;;;4427993;32;20542;-74
2022/09/05 05:25:52;;;;;;;1.90;1.30;;;23.30;51.60;;;;;;4462694;32;20077;-74
2022/09/05 05:28:46;;;;;;;1.15;1.05;;;23.30;51.60;;;;;;4462537;32;20070;-73
2022/09/05 05:31:16;;;;;;;2.05;1.27;;;23.30;51.60;;;;;;4462280;32;20167;-74
2022/09/05 05:33:46;;;;;;;2.13;1.30;;;23.30;51.70;;;;;;4462697;32;20110;-73
2022/09/05 05:36:26;;;;;;;1.48;1.15;;;23.30;51.70;;;;;;4462731;32;20506;-74
2022/09/05 05:39:11;;;;;;;1.80;1.30;;;23.30;51.60;;;;;;4462675;32;20074;-73
2022/09/05 05:41:48;;;;;;;1.80;1.40;;;23.30;51.60;;;;;;4462735;32;20069;-75
2022/09/05 05:44:16;;;;;;;1.30;1.20;;;23.30;51.70;;;;;;4462368;32;20092;-74
2022/09/05 05:46:59;;;;;;;1.35;1.17;;;23.30;51.70;;;;;;4448252;32;20077;-74
2022/09/05 05:49:30;;;;;;;1.73;1.40;;;23.30;51.70;;;;;;4462145;32;20078;-73
2022/09/05 05:52:25;;;;;;;1.88;1.30;;;23.30;51.70;;;;;;4462153;32;20078;-74
2022/09/05 05:55:04;;;;;;;2.10;1.30;;;23.30;51.60;;;;;;4462338;32;20613;-73
2022/09/05 05:57:58;;;;;;;2.83;1.08;;;23.30;51.70;;;;;;4462537;32;20129;-73
2022/09/05 06:00:51;;;;;;;2.28;1.20;;;23.30;51.70;;;;;;4430169;32;20082;-73
2022/09/05 06:03:53;;;;;;;1.33;1.20;;;23.30;51.70;;;;;;4462553;32;20207;-73
2022/09/05 06:06:50;;;;;;;1.92;1.33;;;23.30;51.80;;;;;;4447408;32;20097;-74
2022/09/05 06:09:44;;;;;;;1.65;1.20;;;23.30;51.70;;;;;;4462064;32;20089;-74
2022/09/05 06:12:47;;;;;;;1.30;1.20;;;23.30;51.70;;;;;;4462185;32;20113;-73
2022/09/05 06:15:41;;;;;;;1.35;1.15;;;23.30;51.70;;;;;;4461773;32;20070;-74
2022/09/05 06:18:47;;;;;;;1.40;1.30;;;23.30;51.80;;;;;;4462002;32;20166;-73
2022/09/05 06:21:32;;;;;;;1.38;1.10;;;23.30;51.80;;;;;;4461984;32;20131;-73
2022/09/05 06:24:17;;;;;;;2.85;1.25;;;23.30;51.80;;;;;;4461866;32;20098;-73
2022/09/05 06:27:03;;;;;;;1.25;1.15;;;23.30;51.80;;;;;;4462099;32;20231;-74
2022/09/05 06:29:54;;;;;;;1.23;1.10;;;23.30;51.80;;;;;;4462005;32;20094;-74
2022/09/05 06:32:50;;;;;;;1.58;1.00;;;23.30;51.80;;;;;;4461981;32;20306;-73
2022/09/05 06:35:30;;;;;;;1.45;1.30;;;23.40;51.80;;;;;;4461686;32;20538;-73
2022/09/05 06:38:28;;;;;;;1.20;1.10;;;23.40;51.80;;;;;;4447509;32;20074;-74
2022/09/05 06:41:24;;;;;;;1.50;1.40;;;23.40;51.90;;;;;;4462149;32;20271;-74
2022/09/05 06:44:12;;;;;;;1.35;1.17;;;23.40;51.90;;;;;;4461905;32;20074;-73
2022/09/05 06:46:43;;;;;;;1.30;1.20;;;23.40;51.80;;;;;;4461378;32;20121;-74
2022/09/05 06:49:24;;;;;;;2.90;1.30;;;23.40;51.90;;;;;;4447692;32;20410;-74
2022/09/05 06:52:12;;;;;;;3.75;1.60;;;23.40;52.00;;;;;;4447508;32;20474;-74
2022/09/05 06:54:59;;;;;;;2.92;1.83;;;23.40;51.90;;;;;;4461401;32;20167;-73
2022/09/05 06:57:44;;;;;;;2.30;1.80;;;23.50;51.80;;;;;;4461193;32;20070;-74
2022/09/05 07:00:22;;;;;;;3.13;1.90;;;23.50;51.70;;;;;;4461187;32;20074;-74
2022/09/05 07:03:19;;;;;;;2.30;1.75;;;23.50;51.70;;;;;;4447136;32;20216;-74
2022/09/05 07:06:08;;;;;;;2.00;1.80;;;23.50;51.70;;;;;;4461501;32;20070;-74
2022/09/05 07:09:16;;;;;;;1.77;1.58;;;23.60;51.80;;;;;;4461409;32;20112;-74
2022/09/05 07:12:13;;;;;;;3.22;1.85;;;23.50;51.80;;;;;;4460960;32;20085;-74
2022/09/05 07:15:00;;;;;;;1.95;1.75;;;23.50;51.80;;;;;;4461162;32;20082;-74
2022/09/05 07:18:23;;;;;;;3.53;1.90;;;23.50;51.90;;;;;;4460184;32;20541;-74
2022/09/05 07:20:56;;;;;;;6.78;2.25;;;23.60;51.90;;;;;;4397632;32;20079;-73
2022/09/05 07:23:22;;;;;;;;;;;23.50;51.90;;;;;;4398524;32;20163;-73
2022/09/05 07:25:50;;;;;;;2.70;2.10;;;23.50;51.90;;;;;;4438418;32;20311;-73
2022/09/05 07:28:18;;;;;;;3.75;2.10;;;23.50;51.90;;;;;;4460691;32;20077;-74
2022/09/05 07:30:56;;;;;;;2.88;2.08;;;23.60;52.00;;;;;;4460660;32;20097;-74
2022/09/05 07:33:27;;;;;;;5.30;2.28;;;23.60;51.90;;;;;;4446940;32;20073;-73
2022/09/05 07:36:03;;;;;;;4.55;2.00;;;23.60;51.90;;;;;;4461252;32;20070;-73
2022/09/05 07:38:34;;;;;;;3.05;1.83;;;23.60;51.90;;;;;;4461054;32;20085;-73
2022/09/05 07:41:25;;;;;;;3.85;2.30;;;23.60;51.80;;;;;;4460838;32;20503;-73
2022/09/05 07:44:02;;;;;;;5.35;1.85;;;23.60;51.80;;;;;;4460833;32;20121;-73
2022/09/05 07:46:38;;;;;;;3.35;2.10;;;23.60;51.80;;;;;;4446651;32;20403;-73
2022/09/05 07:49:08;;;;;;;3.13;2.30;;;23.70;51.70;;;;;;4460897;32;20089;-73
2022/09/05 07:51:38;;;;;;;3.53;2.33;;;23.70;51.90;;;;;;4446786;32;20074;-73
2022/09/05 07:54:17;;;;;;;5.70;2.78;;;23.70;51.90;;;;;;4460497;32;20606;-72
2022/09/05 07:56:54;;;;;;;4.60;2.60;;;23.80;52.00;;;;;;4460653;32;20105;-75
2022/09/05 07:59:23;;;;;;;3.30;2.45;;;23.80;52.00;;;;;;4460865;32;20155;-72
2022/09/05 08:01:52;;;;;;;4.63;2.92;;;23.80;52.00;;;;;;4460167;32;20074;-76
2022/09/05 08:04:32;;;;;;;4.57;2.63;;;23.80;52.10;;;;;;4460672;32;20140;-72
2022/09/05 08:07:09;;;;;;;4.57;2.63;;;23.80;52.00;;;;;;4460907;32;20136;-73
2022/09/05 08:09:40;;;;;;;4.68;2.80;;;23.80;52.00;;;;;;4460493;32;20538;-74
2022/09/05 08:12:55;;;;;;;4.13;2.42;;;23.80;51.90;;;;;;4460457;32;20136;-73
2022/09/05 08:15:28;;;;;;;4.50;2.53;;;23.90;51.80;;;;;;4446769;32;20136;-73
2022/09/05 08:18:33;;;;;;;3.15;2.50;;;23.90;51.80;;;;;;4446489;32;20070;-73
2022/09/05 08:21:22;;;;;;;5.25;2.88;;;23.90;51.80;;;;;;4460492;32;20070;-73
2022/09/05 08:24:29;;;;;;;5.70;2.30;;;24.00;51.60;;;;;;4460508;32;20511;-72
2022/09/05 08:27:13;;;;;;;4.57;2.67;;;24.00;51.70;;;;;;4436411;32;20566;-72
2022/09/05 08:30:00;;;;;;;3.85;2.53;;;24.00;51.60;;;;;;4448560;32;20094;-72
2022/09/05 08:32:37;;;;;;;4.93;2.33;;;24.00;51.60;;;;;;4462691;32;20093;-77
2022/09/05 08:35:19;;;;;;;5.03;2.50;;;24.00;51.70;;;;;;4463151;32;20081;-73
2022/09/05 08:37:46;;;;;;;2.50;2.22;;;24.00;51.70;;;;;;4463687;32;20522;-74
2022/09/05 08:40:27;;;;;;;6.80;2.80;;;24.10;51.70;;;;;;4449350;32;20088;-75
2022/09/05 08:43:04;;;;;;;3.45;2.42;;;24.10;51.70;;;;;;4463388;32;20085;-73
2022/09/05 08:45:30;;;;;;;5.50;2.45;;;24.10;51.60;;;;;;4463100;32;20206;-73
2022/09/05 08:48:18;;;;;;;5.28;2.13;;;24.10;51.60;;;;;;4463055;32;20061;-73
2022/09/05 08:51:14;;;;;;;5.55;2.13;;;24.10;51.60;;;;;;4463419;32;20081;-73
2022/09/05 08:54:17;;;;;;;4.22;2.30;;;24.20;51.80;;;;;;4463051;32;20070;-74
2022/09/05 08:56:49;;;;;;;2.60;2.20;;;24.10;51.70;;;;;;4462839;32;20074;-75
2022/09/05 08:59:27;;;;;;;2.75;2.22;;;24.20;51.80;;;;;;4449147;32;20073;-74
2022/09/05 09:02:14;;;;;;;6.43;2.28;;;24.20;51.80;;;;;;4448600;32;20140;-76
2022/09/05 09:04:41;;;;;;;3.40;2.15;;;24.20;51.90;;;;;;4463039;32;20085;-75
2022/09/05 09:07:26;;;;;;;5.95;2.22;;;24.20;51.80;;;;;;4463031;32;20082;-74
2022/09/05 09:10:03;;;;;;;3.92;2.20;;;24.20;51.80;;;;;;4463225;32;20093;-74
2022/09/05 09:12:56;;;;;;;5.88;2.70;;;24.30;51.90;;;;;;4448677;32;20080;-75
2022/09/05 09:15:51;;;;;;;4.78;2.58;;;24.30;52.00;;;;;;4462986;32;20101;-74
2022/09/05 09:18:19;;;;;;;7.45;2.45;;;24.30;52.10;;;;;;4463143;32;20089;-74
2022/09/05 09:20:51;;;;;;;3.47;2.20;;;24.40;51.90;;;;;;4448861;32;20081;-74
2022/09/05 09:23:43;;;;;;;5.38;2.42;;;24.40;51.90;;;;;;4462781;32;20077;-74
2022/09/05 09:26:14;;;;;;;3.67;2.20;;;24.40;51.90;;;;;;4448529;32;20082;-76
2022/09/05 09:28:51;;;;;;;6.72;2.30;;;24.50;51.90;;;;;;4448889;32;20152;-73
2022/09/05 09:31:40;;;;;;;5.78;2.45;;;24.50;51.90;;;;;;4462717;32;20137;-81
2022/09/05 09:34:25;;;;;;;5.20;2.35;;;24.60;52.00;;;;;;4454585;32;20507;-74
2022/09/05 09:37:10;;;;;;;2.88;2.22;;;24.60;51.90;;;;;;4463205;32;20238;-75
2022/09/05 09:39:41;;;;;;;3.38;2.33;;;24.60;51.80;;;;;;4462446;32;20546;-74
2022/09/05 09:42:07;;;;;;;3.58;2.10;;;24.60;51.80;;;;;;4462279;32;20070;-74
2022/09/05 09:45:13;;;;;;;3.25;2.35;;;24.60;51.80;;;;;;4462737;32;20470;-75
2022/09/05 09:48:11;;;;;;;4.25;2.10;;;24.70;51.80;;;;;;4448676;32;20086;-74
2022/09/05 09:51:08;;;;;;;4.70;2.28;;;24.60;51.80;;;;;;4462368;32;20207;-74
2022/09/05 09:53:50;;;;;;;4.60;2.15;;;24.70;51.90;;;;;;4462326;32;20089;-74
2022/09/05 09:56:19;;;;;;;2.90;1.75;;;24.70;51.80;;;;;;4462088;32;20066;-72
2022/09/05 09:58:53;;;;;;;4.28;2.50;;;24.70;51.90;;;;;;4462227;32;20411;-72
2022/09/05 10:01:53;;;;;;;3.97;2.30;;;24.70;51.90;;;;;;4462062;32;20105;-73
2022/09/05 10:04:57;;;;;;;3.35;2.47;;;24.70;51.80;;;;;;4462457;32;20084;-74
2022/09/05 10:07:56;;;;;;;3.67;2.33;;;24.70;51.70;;;;;;4462368;32;20093;-73
2022/09/05 10:10:30;;;;;;;6.00;2.05;;;24.70;51.70;;;;;;4462092;32;20093;-74
2022/09/05 10:13:33;;;;;;;5.95;2.10;;;24.70;51.90;;;;;;4462029;32;20097;-74
2022/09/05 10:16:38;;;;;;;6.88;2.30;;;24.70;51.90;;;;;;4461974;32;20100;-74
2022/09/05 10:19:24;;;;;;;5.10;2.45;;;24.70;51.90;;;;;;4450907;32;20515;-73
2022/09/05 10:22:08;;;;;;;6.05;2.17;;;24.60;51.90;;;;;;4461743;32;20137;-74
2022/09/05 10:25:00;;;;;;;4.43;2.22;;;24.70;52.10;;;;;;4461986;32;20086;-74
2022/09/05 10:27:29;;;;;;;2.55;2.28;;;24.70;52.00;;;;;;4447761;32;20369;-74
2022/09/05 10:30:14;;;;;;;3.72;2.00;;;24.80;52.10;;;;;;4447848;32;20074;-73
2022/09/05 10:32:46;;;;;;;7.38;1.88;;;24.80;52.10;;;;;;4447542;32;20581;-74
2022/09/05 10:35:24;;;;;;;5.95;2.40;;;24.80;52.10;;;;;;4461653;32;20195;-73
2022/09/05 10:38:31;;;;;;;4.75;2.25;;;24.80;52.10;;;;;;4461653;32;20093;-74
2022/09/05 10:41:08;;;;;;;2.85;2.08;;;24.80;52.10;;;;;;4461508;32;20090;-77
2022/09/05 10:43:50;;;;;;;7.72;2.40;;;24.80;52.10;;;;;;4461664;32;20073;-73
2022/09/05 10:46:45;;;;;;;5.25;2.38;;;24.80;52.10;;;;;;4461644;32;20106;-74
2022/09/05 10:49:13;;;;;;;3.08;1.83;;;24.80;52.10;;;;;;4461482;32;20125;-73
2022/09/05 10:51:59;;;;;;;4.10;1.92;;;24.80;52.10;;;;;;4460951;32;20508;-74
2022/09/05 10:54:52;;;;;;;4.78;1.77;;;24.90;52.20;;;;;;4461174;32;20214;-74
2022/09/05 10:57:49;;;;;;;3.00;1.90;;;24.90;52.20;;;;;;4461508;32;20255;-74
2022/09/05 11:00:37;;;;;;;3.65;2.10;;;24.90;52.30;;;;;;4461735;32;20515;-75
2022/09/05 11:03:05;;;;;;;5.45;2.10;;;24.90;52.30;;;;;;4461385;32;20219;-75
2022/09/05 11:05:37;;;;;;;5.03;2.17;;;24.90;52.30;;;;;;4461175;32;20073;-74
2022/09/05 11:08:42;;;;;;;3.72;1.90;;;24.90;52.30;;;;;;4434446;32;20108;-75
2022/09/05 11:11:13;;;;;;;7.18;2.10;;;25.00;52.40;;;;;;4449809;32;20058;-74
2022/09/05 11:13:46;;;;;;;5.13;1.90;;;25.00;52.30;;;;;;4461090;32;20081;-76
2022/09/05 11:16:45;;;;;;;2.27;1.87;;;25.00;52.20;;;;;;4460898;32;20251;-73
2022/09/05 11:19:19;;;;;;;3.42;2.08;;;25.00;52.30;;;;;;4461033;32;20120;-73
2022/09/05 11:21:55;;;;;;;3.78;1.92;;;25.00;52.10;;;;;;4461164;32;20228;-74
2022/09/05 11:25:01;;;;;;;2.78;1.90;;;25.10;52.20;;;;;;4460975;32;20113;-73
2022/09/05 11:27:38;;;;;;;3.08;1.92;;;25.10;52.30;;;;;;4397576;32;20093;-74
2022/09/05 11:30:12;;;;;;;2.00;1.80;;;25.10;52.30;;;;;;4454914;32;20092;-75
2022/09/05 11:33:05;;;;;;;2.97;2.00;;;25.10;52.20;;;;;;4460418;32;20088;-73
2022/09/05 11:35:44;;;;;;;4.28;2.03;;;25.20;52.10;;;;;;4460747;32;20204;-73
2022/09/05 11:38:10;;;;;;;4.93;1.80;;;25.20;52.10;;;;;;4461142;32;20062;-74
2022/09/05 11:41:02;;;;;;;7.30;2.00;;;25.20;52.00;;;;;;4461370;32;20160;-74
2022/09/05 11:44:02;;;;;;;2.25;1.83;;;25.20;52.00;;;;;;4436083;32;20104;-74
2022/09/05 11:46:39;;;;;;;3.92;1.88;;;25.20;51.80;;;;;;4440728;32;20085;-75
2022/09/05 11:49:11;;;;;;;4.22;1.80;;;25.20;51.80;;;;;;4446609;32;20062;-75
2022/09/05 11:52:14;;;;;;;1.85;1.50;;;25.20;51.60;;;;;;4460701;32;20088;-75
2022/09/05 11:55:07;;;;;;;3.97;1.73;;;25.20;51.20;;;;;;4460580;32;20617;-74
2022/09/05 11:57:37;;;;;;;6.18;1.85;;;25.20;52.20;;;;;;4460352;32;20097;-74
2022/09/05 12:00:43;;;;;;;3.58;1.80;;;25.30;51.30;;;;;;4460292;32;20171;-74
2022/09/05 12:03:40;;;;;;;3.80;1.80;;;25.30;51.30;;;;;;4460320;32;20093;-74
2022/09/05 12:06:31;;;;;;;5.05;2.00;;;25.30;51.30;;;;;;4446419;32;20074;-74
2022/09/05 12:09:28;;;;;;;4.18;1.63;;;25.30;51.60;;;;;;4453445;32;20287;-73
2022/09/05 12:11:57;;;;;;;3.63;1.83;;;25.30;51.50;;;;;;4446248;32;20123;-74
2022/09/05 12:14:26;;;;;;;4.13;1.90;;;25.30;51.60;;;;;;4460151;32;20097;-74
2022/09/05 12:16:57;;;;;;;2.55;1.63;;;25.30;51.60;;;;;;4460762;32;20483;-74
2022/09/05 12:19:37;;;;;;;3.95;1.70;;;25.30;51.60;;;;;;4460717;32;20620;-73
2022/09/05 12:22:36;;;;;;;4.65;1.90;;;25.30;51.60;;;;;;4460513;32;20487;-74
2022/09/05 12:25:47;;;;;;;5.78;2.20;;;25.30;51.70;;;;;;4460799;32;20330;-74
2022/09/05 12:28:23;;;;;;;2.78;1.60;;;25.30;51.80;;;;;;4426259;32;20410;-75
2022/09/05 12:30:50;;;;;;;3.95;1.77;;;25.30;51.70;;;;;;4460388;32;20486;-75
2022/09/05 12:33:30;;;;;;;3.40;1.88;;;25.30;51.70;;;;;;4460459;32;20085;-71
2022/09/05 12:36:11;;;;;;;3.55;1.75;;;25.40;51.70;;;;;;4460472;32;20503;-73
2022/09/05 12:38:50;;;;;;;2.75;1.63;;;25.40;51.60;;;;;;4446594;32;20172;-73
2022/09/05 12:41:22;;;;;;;3.60;1.77;;;25.50;51.60;;;;;;4460405;32;20089;-76
2022/09/05 12:43:54;;;;;;;5.50;2.15;;;25.50;51.40;;;;;;4460046;32;20074;-74
2022/09/05 12:46:32;;;;;;;2.58;1.95;;;25.60;51.40;;;;;;4459837;32;20243;-73
2022/09/05 12:49:06;;;;;;;2.45;1.85;;;25.60;51.30;;;;;;4446664;32;20078;-74
2022/09/05 12:51:36;;;;;;;5.30;1.80;;;25.60;51.30;;;;;;4460653;32;20122;-74
2022/09/05 12:54:27;;;;;;;7.30;2.33;;;25.60;51.30;;;;;;4460101;32;20132;-74
2022/09/05 12:57:25;;;;;;;3.60;1.85;;;25.60;51.40;;;;;;4460488;32;20136;-73
2022/09/05 13:00:13;;;;;;;5.88;2.05;;;25.60;51.50;;;;;;4460578;32;20183;-73
2022/09/05 13:02:44;;;;;;;3.63;1.75;;;25.60;51.60;;;;;;4460168;32;20600;-73
2022/09/05 13:05:16;;;;;;;5.05;2.05;;;25.60;51.60;;;;;;4460384;32;20096;-73
2022/09/05 13:07:57;;;;;;;3.20;2.08;;;25.60;51.70;;;;;;4460152;32;20073;-73
2022/09/05 13:10:27;;;;;;;4.38;1.83;;;25.60;51.80;;;;;;4460080;32;20100;-73
2022/09/05 13:13:02;;;;;;;4.50;2.10;;;25.60;51.80;;;;;;4459813;32;20605;-73
2022/09/05 13:15:34;;;;;;;5.15;2.55;;;25.70;51.80;;;;;;4461541;32;20077;-73
2022/09/05 13:18:23;;;;;;;2.30;1.80;;;25.70;51.80;;;;;;4463223;32;20082;-73
2022/09/05 13:21:06;;;;;;;3.17;1.90;;;25.70;51.80;;;;;;4462962;32;20082;-74
2022/09/05 13:24:00;;;;;;;4.87;2.30;;;25.70;51.80;;;;;;4463167;32;20105;-73
2022/09/05 13:26:46;;;;;;;6.60;2.17;;;25.70;51.90;;;;;;4460488;32;20101;-73
2022/09/05 13:29:14;;;;;;;5.80;2.00;;;25.70;52.00;;;;;;4462865;32;20644;-74
2022/09/05 13:31:40;;;;;;;4.25;2.22;;;25.70;52.00;;;;;;4462896;32;20146;-75
2022/09/05 13:34:22;;;;;;;2.95;2.20;;;25.70;52.10;;;;;;4462653;32;20434;-75
2022/09/05 13:36:55;;;;;;;5.10;2.33;;;25.70;52.30;;;;;;4462512;32;20207;-74
2022/09/05 13:39:27;;;;;;;5.03;2.15;;;25.70;52.20;;;;;;4462857;32;20456;-74
2022/09/05 13:42:00;;;;;;;3.35;2.35;;;25.80;52.30;;;;;;4448982;32;20069;-74
2022/09/05 13:44:28;;;;;;;2.33;2.10;;;25.70;52.50;;;;;;4462596;32;20096;-74
2022/09/05 13:47:13;;;;;;;5.95;2.40;;;25.70;52.50;;;;;;4462259;32;20216;-74
2022/09/05 13:49:55;;;;;;;4.50;2.15;;;25.70;52.40;;;;;;4462430;32;20206;-73
2022/09/05 13:53:08;;;;;;;3.50;1.90;;;25.70;52.50;;;;;;4462707;32;20081;-77
2022/09/05 13:55:52;;;;;;;6.20;2.08;;;25.70;52.40;;;;;;4434118;32;20523;-74
2022/09/05 13:58:41;;;;;;;3.70;2.45;;;25.70;52.40;;;;;;4462381;32;20227;-73
2022/09/05 14:01:13;;;;;;;4.45;2.00;;;25.70;52.40;;;;;;4462341;32;20519;-76
2022/09/05 14:03:54;;;;;;;3.25;2.00;;;25.80;52.40;;;;;;4462599;32;20420;-78
2022/09/05 14:06:56;;;;;;;2.70;1.83;;;25.80;52.40;;;;;;4462852;32;20069;-79
2022/09/05 14:09:50;;;;;;;3.28;2.15;;;25.80;52.20;;;;;;4449349;32;20105;-78
2022/09/05 14:12:16;;;;;;;3.22;2.35;;;25.80;52.10;;;;;;4463275;32;20411;-76
2022/09/05 14:14:54;;;;;;;3.60;2.50;;;25.80;52.10;;;;;;4462884;32;20175;-75
2022/09/05 14:17:19;;;;;;;5.53;2.10;;;25.80;52.00;;;;;;4448414;32;20604;-76